Farmers, Kentucky
Current Conditions -  °F | °C
As of 3:50 AM on Wednesday 22 Oct 2014 (Local Time) from KSYM Reporting Station
Overcast Overcast  
Wind Chill: 39°   Ceiling: 4200
Heat Index: 43°   Visibility: 10mi
Dew Point: 39°   Wind: 6mph
Humidity: 87%   Direction: 330°NNW
Pressure: 30.17"   Gusts: NA
Location:  38.14°N, 83.55°W
Report Text: KSYM 220750Z AUTO 33005KT 10SM OVC042 06/04 A3017 RMK AO2
Loading
Personal Weather Stations






























Interactive Weather Map
Tropical Storm Tracking
New forecast layout! Learn more

10-Day Weather Forecast

Advertisements
Track Severe Weather on mobile